KEDE/EDE METAR and TAF weather

Enter ICAO airport designator
Station Type Date Time Source
KEDE METAR 2022/01/29 13:55 UTC NOAA

KEDE 291355Z AUTO 34016G23KT 10SM BKN018 OVC023 00/M01 A2980 RMK AO2 T00041006


Station Type Date Time Source
KEDE Decoded METAR 2022/01/29 13:55 UTC NOAA

Edenton, Northeastern Regional Airport, NC, United States (KEDE) 36-01-40N 076-34-02W
Jan 29, 2022 - 08:55 AM EST / 2022.01.29 1355 UTC
Wind: from the NNW (340 degrees) at 18 MPH (16 KT) gusting to 26 MPH (23 KT):0
Visibility: 10 mile(s):0
Sky conditions: overcast
Temperature: 32.7 F (0.4 C)
Windchill: 21 F (-6 C):1
Dew Point: 30.9 F (-0.6 C)
Relative Humidity: 92%
Pressure (altimeter): 29.8 in. Hg (1009 hPa)
ob: KEDE 291355Z AUTO 34016G23KT 10SM BKN018 OVC023 00/M01 A2980 RMK AO2 T00041006
cycle: 14

Station Type Date Time Source
KEDE TAF UTC NOAA

Error!

Example: see airport list